Time;durP1;ratioP1;P1;durP2;ratioP2;P2;SDS_P1;SDS_P2;PMS_P1;PMS_P2;Temp;Humidity;BMP_temperature;BMP_pressure;BME280_temperature;BME280_humidity;BME280_pressure;Samples;Min_cycle;Max_cycle;Signal;HPM_P1;HPM_P2
2023/07/26 00:00:09;;;;;;;11.20;10.70;;;;;;;;;;5030155;28;20406;-62
2023/07/26 00:02:34;;;;;;;11.50;11.00;;;;;;;;;;5046425;28;20064;-61
2023/07/26 00:04:59;;;;;;;11.60;11.10;;;;;;;;;;5047179;28;20207;-61
2023/07/26 00:07:25;;;;;;;10.98;10.48;;;;;;;;;;5047296;28;20083;-61
2023/07/26 00:09:50;;;;;;;11.20;10.70;;;;;;;;;;5047036;28;20485;-62
2023/07/26 00:12:15;;;;;;;11.25;10.75;;;;;;;;;;5048388;28;20029;-62
2023/07/26 00:14:40;;;;;;;11.02;10.52;;;;;;;;;;5046310;28;20025;-60
2023/07/26 00:17:06;;;;;;;11.75;11.25;;;;;;;;;;5045518;28;20041;-61
2023/07/26 00:19:31;;;;;;;11.50;11.00;;;;;;;;;;5048103;28;20036;-60
2023/07/26 00:21:56;;;;;;;11.05;10.55;;;;;;;;;;5045965;28;20036;-60
2023/07/26 00:24:22;;;;;;;11.10;10.60;;;;;;;;;;5048884;28;20554;-61
2023/07/26 00:26:48;;;;;;;11.32;10.82;;;;;;;;;;5047321;28;20013;-61
2023/07/26 00:29:13;;;;;;;11.60;11.10;;;;;;;;;;5047328;28;20424;-61
2023/07/26 00:31:39;;;;;;;11.73;11.18;;;;;;;;;;5043755;28;20029;-61
2023/07/26 00:34:04;;;;;;;11.25;10.75;;;;;;;;;;5047180;28;20021;-61
2023/07/26 00:36:29;;;;;;;11.50;11.00;;;;;;;;;;5043600;28;20084;-61
2023/07/26 00:38:55;;;;;;;11.27;10.77;;;;;;;;;;5044897;28;20442;-62
2023/07/26 00:41:21;;;;;;;11.27;10.77;;;;;;;;;;5048175;28;20033;-62
2023/07/26 00:43:46;;;;;;;11.60;11.10;;;;;;;;;;5048912;28;20039;-61
2023/07/26 00:46:12;;;;;;;11.45;10.95;;;;;;;;;;5046628;28;20013;-61
2023/07/26 00:48:37;;;;;;;11.52;11.02;;;;;;;;;;5046895;28;20063;-60
2023/07/26 00:51:03;;;;;;;11.07;10.57;;;;;;;;;;5047932;28;20380;-61
2023/07/26 00:53:29;;;;;;;11.10;10.60;;;;;;;;;;5048548;28;20451;-62
2023/07/26 00:55:54;;;;;;;11.32;10.82;;;;;;;;;;5044062;28;20056;-62
2023/07/26 00:58:21;;;;;;;11.70;11.20;;;;;;;;;;5045870;28;20388;-61
2023/07/26 01:00:46;;;;;;;11.23;10.73;;;;;;;;;;5044856;28;20029;-61
2023/07/26 01:03:12;;;;;;;11.77;11.20;;;;;;;;;;5048718;28;20392;-63
2023/07/26 01:05:56;;;;;;;11.25;10.75;;;;;;;;;;5044249;28;20021;-62
2023/07/26 01:08:27;;;;;;;10.93;10.43;;;;;;;;;;5045132;28;20045;-62
2023/07/26 01:10:58;;;;;;;11.45;10.95;;;;;;;;;;5045135;28;20079;-62
2023/07/26 01:13:26;;;;;;;11.18;10.68;;;;;;;;;;5051398;28;20041;-62
2023/07/26 01:15:52;;;;;;;10.98;10.48;;;;;;;;;;5047525;28;20040;-62
2023/07/26 01:18:18;;;;;;;11.18;10.68;;;;;;;;;;5046031;28;20024;-62
2023/07/26 01:20:43;;;;;;;11.15;10.65;;;;;;;;;;5047639;28;20480;-61
2023/07/26 01:23:09;;;;;;;11.38;10.88;;;;;;;;;;5045627;28;20021;-61
2023/07/26 01:25:34;;;;;;;11.13;10.63;;;;;;;;;;5049274;28;20064;-62
2023/07/26 01:28:00;;;;;;;11.88;11.27;;;;;;;;;;5047772;28;20021;-62
2023/07/26 01:30:29;;;;;;;10.95;10.45;;;;;;;;;;5047534;28;20029;-62
2023/07/26 01:32:55;;;;;;;10.85;10.35;;;;;;;;;;5043965;28;20159;-62
2023/07/26 01:35:21;;;;;;;11.27;10.77;;;;;;;;;;5049957;28;20472;-61
2023/07/26 01:37:47;;;;;;;11.00;10.50;;;;;;;;;;5051257;28;20024;-61
2023/07/26 01:40:13;;;;;;;11.00;10.50;;;;;;;;;;5051776;28;20530;-62
2023/07/26 01:42:39;;;;;;;12.13;11.52;;;;;;;;;;5045605;28;20029;-60
2023/07/26 01:45:04;;;;;;;11.63;11.13;;;;;;;;;;5051684;28;20036;-61
2023/07/26 01:47:30;;;;;;;11.20;10.70;;;;;;;;;;5044959;28;20123;-62
2023/07/26 01:49:55;;;;;;;11.27;10.77;;;;;;;;;;5046284;28;20155;-62
2023/07/26 01:52:21;;;;;;;11.40;10.90;;;;;;;;;;5047395;28;20033;-61
2023/07/26 01:54:46;;;;;;;12.35;11.75;;;;;;;;;;5051007;28;20035;-62
2023/07/26 01:57:12;;;;;;;11.82;11.30;;;;;;;;;;5048577;28;20155;-62
2023/07/26 01:59:37;;;;;;;11.90;11.30;;;;;;;;;;5046909;28;20028;-61
2023/07/26 02:02:02;;;;;;;11.10;10.60;;;;;;;;;;5050368;28;20480;-62
2023/07/26 02:04:27;;;;;;;11.30;10.80;;;;;;;;;;5050274;28;20411;-63
2023/07/26 02:06:53;;;;;;;11.25;10.75;;;;;;;;;;5049937;28;20019;-61
2023/07/26 02:09:19;;;;;;;11.23;10.73;;;;;;;;;;5047679;28;20399;-61
2023/07/26 02:11:44;;;;;;;11.20;10.70;;;;;;;;;;5049924;28;20032;-61
2023/07/26 02:14:10;;;;;;;11.82;11.23;;;;;;;;;;5048693;28;20028;-61
2023/07/26 02:16:35;;;;;;;11.40;10.90;;;;;;;;;;5049695;28;20028;-61
2023/07/26 02:19:00;;;;;;;11.75;11.25;;;;;;;;;;5049314;28;20029;-62
2023/07/26 02:21:25;;;;;;;11.27;10.77;;;;;;;;;;5052318;28;20025;-61
2023/07/26 02:23:51;;;;;;;11.10;10.60;;;;;;;;;;5051870;28;20030;-61
2023/07/26 02:26:16;;;;;;;11.02;10.52;;;;;;;;;;5047738;28;20112;-61
2023/07/26 02:28:41;;;;;;;11.10;10.60;;;;;;;;;;5049577;28;20025;-61
2023/07/26 02:31:06;;;;;;;11.63;11.13;;;;;;;;;;5049886;28;20025;-62
2023/07/26 02:33:33;;;;;;;11.23;10.73;;;;;;;;;;5049163;28;20443;-61
2023/07/26 02:35:59;;;;;;;10.95;10.45;;;;;;;;;;5051419;28;20274;-60
2023/07/26 02:38:25;;;;;;;11.15;10.65;;;;;;;;;;5050532;28;20120;-61
2023/07/26 02:40:50;;;;;;;11.10;10.60;;;;;;;;;;5046313;28;20031;-61
2023/07/26 02:43:15;;;;;;;11.43;10.93;;;;;;;;;;5046348;28;20040;-61
2023/07/26 02:45:41;;;;;;;11.63;11.13;;;;;;;;;;5046702;28;20053;-62
2023/07/26 02:48:07;;;;;;;11.40;10.90;;;;;;;;;;5043665;28;20045;-60
2023/07/26 02:50:32;;;;;;;11.00;10.50;;;;;;;;;;5050253;28;20466;-63
2023/07/26 02:52:57;;;;;;;11.27;10.77;;;;;;;;;;5049380;28;20029;-61
2023/07/26 02:55:23;;;;;;;11.10;10.60;;;;;;;;;;5046685;28;20017;-61
2023/07/26 02:57:48;;;;;;;11.05;10.55;;;;;;;;;;5050181;28;20341;-61
2023/07/26 03:00:14;;;;;;;11.40;10.90;;;;;;;;;;5046318;28;20036;-62
2023/07/26 03:02:39;;;;;;;11.10;10.60;;;;;;;;;;5049422;28;20021;-62
2023/07/26 03:05:05;;;;;;;11.57;11.07;;;;;;;;;;5048235;28;20056;-62
2023/07/26 03:07:30;;;;;;;11.50;11.00;;;;;;;;;;5038116;28;20504;-62
2023/07/26 03:09:55;;;;;;;11.60;11.10;;;;;;;;;;5045953;28;20142;-64
2023/07/26 03:12:21;;;;;;;11.05;10.55;;;;;;;;;;5048399;28;20071;-63
2023/07/26 03:14:46;;;;;;;11.40;10.90;;;;;;;;;;5048794;28;20017;-61
2023/07/26 03:17:11;;;;;;;11.32;10.82;;;;;;;;;;5051375;28;20701;-61
2023/07/26 03:19:37;;;;;;;11.50;11.00;;;;;;;;;;5044088;28;20049;-61
2023/07/26 03:22:02;;;;;;;11.15;10.65;;;;;;;;;;5045537;28;20481;-60
2023/07/26 03:24:27;;;;;;;11.25;10.75;;;;;;;;;;5047481;28;20434;-62
2023/07/26 03:26:53;;;;;;;11.40;10.90;;;;;;;;;;5048037;28;20027;-62
2023/07/26 03:29:18;;;;;;;11.70;11.20;;;;;;;;;;5046097;28;20068;-63
2023/07/26 03:31:43;;;;;;;11.60;11.10;;;;;;;;;;5048388;28;20440;-61
2023/07/26 03:34:08;;;;;;;11.38;10.88;;;;;;;;;;5047422;28;20266;-61
2023/07/26 03:36:34;;;;;;;11.40;10.90;;;;;;;;;;5048472;28;20033;-61
2023/07/26 03:38:59;;;;;;;11.40;10.90;;;;;;;;;;5031239;28;20029;-62
2023/07/26 03:41:25;;;;;;;11.30;10.80;;;;;;;;;;5048039;28;20023;-61
2023/07/26 03:43:50;;;;;;;11.75;11.25;;;;;;;;;;5048434;28;20037;-62
2023/07/26 03:46:15;;;;;;;11.65;11.15;;;;;;;;;;5045748;28;20154;-62
2023/07/26 03:48:41;;;;;;;11.65;11.15;;;;;;;;;;5050157;28;20028;-62
2023/07/26 03:51:06;;;;;;;11.77;11.27;;;;;;;;;;5047961;28;20032;-62
2023/07/26 03:53:31;;;;;;;11.77;11.27;;;;;;;;;;5053107;28;20469;-62
2023/07/26 03:55:57;;;;;;;11.10;10.60;;;;;;;;;;5047628;28;20032;-61
2023/07/26 03:58:22;;;;;;;11.40;10.90;;;;;;;;;;5045604;28;20772;-61
2023/07/26 04:00:47;;;;;;;12.07;11.57;;;;;;;;;;5045476;28;20270;-62
2023/07/26 04:03:12;;;;;;;11.80;11.30;;;;;;;;;;5045633;28;20792;-61
2023/07/26 04:05:38;;;;;;;11.48;10.98;;;;;;;;;;5045797;28;20040;-63
2023/07/26 04:08:03;;;;;;;11.65;11.15;;;;;;;;;;5048094;28;20048;-62
2023/07/26 04:10:28;;;;;;;11.77;11.27;;;;;;;;;;5045902;28;20116;-61
2023/07/26 04:12:54;;;;;;;11.63;11.13;;;;;;;;;;5044517;28;20020;-62
2023/07/26 04:15:19;;;;;;;12.03;11.53;;;;;;;;;;5047510;28;20025;-63
2023/07/26 04:17:44;;;;;;;11.60;11.10;;;;;;;;;;5044991;28;20272;-61
2023/07/26 04:20:10;;;;;;;11.45;10.95;;;;;;;;;;5047616;28;20033;-62
2023/07/26 04:22:35;;;;;;;11.60;11.10;;;;;;;;;;5044963;28;20029;-62
2023/07/26 04:25:00;;;;;;;11.53;11.03;;;;;;;;;;5045055;28;20117;-63
2023/07/26 04:27:26;;;;;;;11.63;11.13;;;;;;;;;;5046479;28;20298;-63
2023/07/26 04:29:51;;;;;;;11.10;10.60;;;;;;;;;;5046348;28;20021;-62
2023/07/26 04:32:17;;;;;;;11.07;10.57;;;;;;;;;;5046895;28;20433;-62
2023/07/26 04:34:42;;;;;;;11.60;11.10;;;;;;;;;;5045596;28;20028;-62
2023/07/26 04:37:07;;;;;;;11.73;11.23;;;;;;;;;;5046775;28;20028;-61
2023/07/26 04:39:32;;;;;;;12.02;11.52;;;;;;;;;;5046073;28;20301;-61
2023/07/26 04:41:58;;;;;;;11.43;10.93;;;;;;;;;;5043596;28;20373;-62
2023/07/26 04:44:23;;;;;;;11.43;10.93;;;;;;;;;;5046093;28;20348;-62
2023/07/26 04:46:48;;;;;;;12.10;11.60;;;;;;;;;;5047878;28;20013;-63
2023/07/26 04:49:14;;;;;;;11.50;11.00;;;;;;;;;;5047191;28;20021;-61
2023/07/26 04:51:39;;;;;;;12.00;11.50;;;;;;;;;;5044363;28;20270;-63
2023/07/26 04:54:05;;;;;;;11.30;10.80;;;;;;;;;;5044158;28;20029;-62
2023/07/26 04:56:30;;;;;;;11.50;11.00;;;;;;;;;;5046464;28;20028;-63
2023/07/26 04:58:56;;;;;;;11.88;11.38;;;;;;;;;;5043464;28;20493;-62
2023/07/26 05:01:22;;;;;;;12.30;11.77;;;;;;;;;;5041974;28;20021;-64
2023/07/26 05:03:47;;;;;;;11.48;10.98;;;;;;;;;;5045637;28;20383;-62
2023/07/26 05:06:13;;;;;;;11.60;11.10;;;;;;;;;;5045570;28;20101;-62
2023/07/26 05:08:38;;;;;;;11.43;10.93;;;;;;;;;;5043684;28;20060;-62
2023/07/26 05:11:04;;;;;;;11.73;11.23;;;;;;;;;;5048364;28;20361;-61
2023/07/26 05:13:29;;;;;;;11.38;10.88;;;;;;;;;;5051283;28;20278;-62
2023/07/26 05:15:55;;;;;;;11.70;11.20;;;;;;;;;;5044059;28;20025;-61
2023/07/26 05:18:20;;;;;;;11.53;11.03;;;;;;;;;;5048773;28;20013;-61
2023/07/26 05:20:47;;;;;;;11.52;11.02;;;;;;;;;;5031854;28;20285;-61
2023/07/26 05:23:13;;;;;;;11.60;11.10;;;;;;;;;;5043037;28;20119;-63
2023/07/26 05:25:40;;;;;;;11.40;10.90;;;;;;;;;;5031237;28;20436;-61
2023/07/26 05:28:05;;;;;;;11.32;10.82;;;;;;;;;;5046535;28;20031;-62
2023/07/26 05:30:30;;;;;;;11.27;10.77;;;;;;;;;;5047018;28;20109;-62
2023/07/26 05:32:55;;;;;;;11.30;10.80;;;;;;;;;;5041342;28;20017;-61
2023/07/26 05:35:21;;;;;;;11.30;10.80;;;;;;;;;;5045134;28;22757;-59
2023/07/26 05:37:46;;;;;;;11.13;10.63;;;;;;;;;;5048586;28;20250;-59
2023/07/26 05:40:11;;;;;;;11.00;10.50;;;;;;;;;;5040527;28;20321;-61
2023/07/26 05:42:37;;;;;;;11.48;10.98;;;;;;;;;;5043616;28;20258;-60
2023/07/26 05:45:02;;;;;;;11.15;10.65;;;;;;;;;;5037998;28;20021;-60
2023/07/26 05:47:28;;;;;;;11.20;10.70;;;;;;;;;;5045082;28;20380;-59
2023/07/26 05:49:53;;;;;;;11.25;10.75;;;;;;;;;;5041566;28;20017;-60
2023/07/26 05:52:18;;;;;;;10.93;10.43;;;;;;;;;;5046465;28;20023;-60
2023/07/26 05:54:44;;;;;;;10.88;10.38;;;;;;;;;;5044026;28;20025;-60
2023/07/26 05:57:09;;;;;;;11.20;10.70;;;;;;;;;;5044220;28;20436;-59
2023/07/26 05:59:34;;;;;;;11.43;10.93;;;;;;;;;;5044163;28;20044;-60
2023/07/26 06:02:00;;;;;;;11.10;10.60;;;;;;;;;;5045170;28;20419;-59
2023/07/26 06:04:26;;;;;;;10.90;10.40;;;;;;;;;;5045077;28;20029;-61
2023/07/26 06:06:52;;;;;;;11.25;10.75;;;;;;;;;;5045638;28;20023;-60
2023/07/26 06:09:17;;;;;;;11.13;10.63;;;;;;;;;;5050716;28;20120;-61
2023/07/26 06:11:42;;;;;;;10.87;10.37;;;;;;;;;;5050327;28;20290;-59
2023/07/26 06:14:08;;;;;;;11.17;10.67;;;;;;;;;;5048515;28;20446;-60
2023/07/26 06:16:33;;;;;;;11.15;10.65;;;;;;;;;;5048832;28;20840;-60
2023/07/26 06:18:59;;;;;;;11.20;10.70;;;;;;;;;;5049742;28;20157;-60
2023/07/26 06:21:24;;;;;;;11.25;10.75;;;;;;;;;;5045600;28;20595;-60
2023/07/26 06:23:49;;;;;;;11.17;10.67;;;;;;;;;;5044232;28;20419;-60
2023/07/26 06:26:15;;;;;;;11.13;10.63;;;;;;;;;;5048510;28;20350;-61
2023/07/26 06:28:41;;;;;;;11.70;11.20;;;;;;;;;;5032038;28;20323;-61
2023/07/26 06:31:06;;;;;;;11.30;10.80;;;;;;;;;;5045362;28;20036;-61
2023/07/26 06:33:31;;;;;;;11.10;10.60;;;;;;;;;;5050905;28;20029;-60
2023/07/26 06:35:57;;;;;;;11.00;10.50;;;;;;;;;;5050663;28;20277;-59
2023/07/26 06:38:23;;;;;;;11.02;10.52;;;;;;;;;;5051099;28;20028;-59
2023/07/26 06:40:48;;;;;;;11.15;10.65;;;;;;;;;;5047640;28;20025;-60
2023/07/26 06:43:13;;;;;;;11.10;10.60;;;;;;;;;;5046567;28;20120;-61
2023/07/26 06:45:39;;;;;;;11.40;10.90;;;;;;;;;;5049079;28;20270;-61
2023/07/26 06:48:05;;;;;;;11.53;11.03;;;;;;;;;;5046620;28;20037;-60
2023/07/26 06:50:30;;;;;;;11.00;10.50;;;;;;;;;;5044661;28;20013;-61
2023/07/26 06:52:55;;;;;;;11.48;10.98;;;;;;;;;;5038924;28;20497;-62
2023/07/26 06:55:21;;;;;;;11.60;11.10;;;;;;;;;;5044701;28;20053;-63
2023/07/26 06:57:46;;;;;;;11.57;11.07;;;;;;;;;;5041598;28;20339;-65
2023/07/26 07:00:14;;;;;;;11.53;11.03;;;;;;;;;;5044192;28;20021;-66
2023/07/26 07:02:39;;;;;;;11.35;10.85;;;;;;;;;;5042738;28;20387;-64
2023/07/26 07:05:05;;;;;;;11.30;10.80;;;;;;;;;;5045645;28;20029;-64
2023/07/26 07:07:31;;;;;;;11.18;10.68;;;;;;;;;;5042529;28;20284;-64
2023/07/26 07:09:56;;;;;;;11.20;10.70;;;;;;;;;;5042281;28;20016;-64
2023/07/26 07:12:21;;;;;;;11.30;10.80;;;;;;;;;;5046027;28;20060;-63
2023/07/26 07:14:47;;;;;;;11.50;11.00;;;;;;;;;;5045998;28;20060;-64
2023/07/26 07:17:12;;;;;;;11.87;11.37;;;;;;;;;;5046826;28;20100;-64
2023/07/26 07:19:37;;;;;;;11.40;10.90;;;;;;;;;;5047416;28;20456;-64
2023/07/26 07:22:03;;;;;;;11.60;11.10;;;;;;;;;;5047301;28;20033;-63
2023/07/26 07:24:28;;;;;;;11.90;11.40;;;;;;;;;;5046059;28;20449;-62
2023/07/26 07:26:54;;;;;;;11.60;11.10;;;;;;;;;;5046787;28;20043;-64
2023/07/26 07:29:19;;;;;;;11.65;11.15;;;;;;;;;;5046265;28;20021;-65
2023/07/26 07:31:44;;;;;;;11.45;10.95;;;;;;;;;;5045018;28;20387;-65
2023/07/26 07:34:10;;;;;;;11.43;10.93;;;;;;;;;;5046891;28;20044;-64
2023/07/26 07:36:35;;;;;;;11.27;10.77;;;;;;;;;;5042477;28;20249;-64
2023/07/26 07:39:00;;;;;;;11.50;11.00;;;;;;;;;;5046293;28;20052;-63
2023/07/26 07:41:25;;;;;;;11.30;10.80;;;;;;;;;;5044671;28;20123;-65
2023/07/26 07:43:51;;;;;;;11.30;10.80;;;;;;;;;;5043912;28;20274;-63
2023/07/26 07:46:16;;;;;;;11.70;11.20;;;;;;;;;;5043818;28;20108;-63
2023/07/26 07:48:42;;;;;;;11.30;10.80;;;;;;;;;;5043777;28;20032;-64
2023/07/26 07:51:07;;;;;;;11.38;10.88;;;;;;;;;;5038934;28;20452;-65
2023/07/26 07:53:32;;;;;;;11.30;10.80;;;;;;;;;;5042413;28;20020;-63
2023/07/26 07:55:58;;;;;;;11.30;10.80;;;;;;;;;;5043554;28;20092;-64
2023/07/26 07:58:23;;;;;;;11.30;10.80;;;;;;;;;;5041265;28;20033;-65
2023/07/26 08:00:48;;;;;;;11.55;11.05;;;;;;;;;;5043707;28;20111;-64
2023/07/26 08:03:14;;;;;;;12.10;11.60;;;;;;;;;;5045476;28;20033;-63
2023/07/26 08:05:39;;;;;;;11.98;11.48;;;;;;;;;;5045936;28;20265;-65
2023/07/26 08:08:06;;;;;;;12.37;11.80;;;;;;;;;;5045137;28;20055;-64
2023/07/26 08:10:31;;;;;;;12.35;11.77;;;;;;;;;;5045545;28;20623;-63
2023/07/26 08:12:56;;;;;;;12.50;11.90;;;;;;;;;;5045969;28;20202;-63
2023/07/26 08:15:22;;;;;;;11.93;11.43;;;;;;;;;;5038852;28;20028;-64
2023/07/26 08:17:47;;;;;;;12.35;11.75;;;;;;;;;;5045233;28;20028;-63
2023/07/26 08:20:12;;;;;;;11.93;11.43;;;;;;;;;;5043374;28;20507;-64
2023/07/26 08:22:38;;;;;;;12.43;11.82;;;;;;;;;;5046386;28;20333;-65
2023/07/26 08:25:04;;;;;;;12.27;11.68;;;;;;;;;;5045042;28;20130;-65
2023/07/26 08:27:29;;;;;;;12.38;11.77;;;;;;;;;;5044125;28;20068;-65
2023/07/26 08:29:54;;;;;;;12.43;11.82;;;;;;;;;;5042839;28;20021;-64
2023/07/26 08:32:20;;;;;;;12.87;12.27;;;;;;;;;;5045204;28;20020;-65
2023/07/26 08:34:45;;;;;;;12.65;12.05;;;;;;;;;;5044053;28;20292;-66
2023/07/26 08:37:10;;;;;;;12.17;11.57;;;;;;;;;;5044067;28;20060;-66
2023/07/26 08:39:36;;;;;;;12.38;11.77;;;;;;;;;;5044953;28;20250;-64
2023/07/26 08:42:02;;;;;;;12.45;11.85;;;;;;;;;;5044557;28;20111;-65
2023/07/26 08:44:28;;;;;;;12.45;11.85;;;;;;;;;;5044896;28;20071;-65
2023/07/26 08:46:54;;;;;;;12.93;12.32;;;;;;;;;;5043425;28;20468;-64
2023/07/26 08:49:19;;;;;;;12.88;12.27;;;;;;;;;;5038362;28;20028;-65
2023/07/26 08:51:45;;;;;;;11.70;11.20;;;;;;;;;;5042698;28;20033;-65
2023/07/26 08:54:10;;;;;;;12.27;11.68;;;;;;;;;;5040606;28;20021;-64
2023/07/26 08:56:36;;;;;;;12.05;11.45;;;;;;;;;;5046268;28;20104;-64
2023/07/26 08:59:02;;;;;;;12.20;11.60;;;;;;;;;;5042079;28;20380;-65
2023/07/26 09:01:27;;;;;;;12.57;11.98;;;;;;;;;;5042619;28;20036;-64
2023/07/26 09:03:53;;;;;;;12.45;11.85;;;;;;;;;;5044245;28;20020;-64
2023/07/26 09:06:19;;;;;;;11.90;11.40;;;;;;;;;;5044104;28;20423;-65
2023/07/26 09:08:44;;;;;;;12.07;11.52;;;;;;;;;;5045296;28;20037;-64
2023/07/26 09:11:20;;;;;;;12.27;11.68;;;;;;;;;;5047311;28;20079;-64
2023/07/26 09:14:04;;;;;;;11.93;11.43;;;;;;;;;;5043934;28;20089;-64
2023/07/26 09:16:30;;;;;;;12.20;11.60;;;;;;;;;;5043746;28;20044;-64
2023/07/26 09:19:00;;;;;;;13.57;12.98;;;;;;;;;;5041335;28;20033;-62
2023/07/26 09:21:29;;;;;;;11.85;11.35;;;;;;;;;;5042397;28;20036;-62
2023/07/26 09:23:55;;;;;;;12.18;11.60;;;;;;;;;;5041223;28;20029;-62
2023/07/26 09:26:32;;;;;;;12.50;11.90;;;;;;;;;;5037924;28;20413;-63
2023/07/26 09:28:57;;;;;;;12.68;12.07;;;;;;;;;;5039039;28;20080;-61
2023/07/26 09:31:31;;;;;;;11.73;11.23;;;;;;;;;;5041410;28;20017;-66
2023/07/26 09:33:56;;;;;;;12.35;11.75;;;;;;;;;;5042545;28;20294;-64
2023/07/26 09:36:22;;;;;;;11.55;11.05;;;;;;;;;;5043620;28;20069;-62
2023/07/26 09:38:47;;;;;;;12.02;11.50;;;;;;;;;;5042364;28;20036;-63
2023/07/26 09:41:25;;;;;;;11.90;11.37;;;;;;;;;;5044878;28;20025;-64
2023/07/26 09:43:51;;;;;;;12.25;11.65;;;;;;;;;;5041784;28;20675;-64
2023/07/26 09:46:17;;;;;;;11.90;11.40;;;;;;;;;;5045058;28;20021;-64
2023/07/26 09:49:02;;;;;;;12.40;11.80;;;;;;;;;;5036116;28;20137;-59
2023/07/26 09:51:29;;;;;;;11.75;11.25;;;;;;;;;;5037557;28;20029;-59
2023/07/26 09:53:56;;;;;;;12.20;11.60;;;;;;;;;;5037280;28;20495;-60
2023/07/26 09:56:23;;;;;;;13.40;12.80;;;;;;;;;;5043974;28;20113;-60
2023/07/26 09:58:49;;;;;;;12.40;11.80;;;;;;;;;;5043428;28;20021;-62
2023/07/26 10:01:16;;;;;;;12.38;11.77;;;;;;;;;;5043331;28;20025;-60
2023/07/26 10:03:44;;;;;;;11.60;11.10;;;;;;;;;;5043443;28;20017;-60
2023/07/26 10:06:09;;;;;;;11.60;11.10;;;;;;;;;;5043001;28;20021;-61
2023/07/26 10:08:36;;;;;;;11.48;10.98;;;;;;;;;;5047668;28;20056;-60
2023/07/26 10:11:03;;;;;;;11.60;11.10;;;;;;;;;;5042310;28;20057;-59
2023/07/26 10:13:30;;;;;;;11.43;10.93;;;;;;;;;;5045246;28;20069;-60
2023/07/26 10:15:56;;;;;;;12.88;12.27;;;;;;;;;;5036792;28;20052;-61
2023/07/26 10:18:25;;;;;;;12.73;12.13;;;;;;;;;;5038835;28;20029;-62
2023/07/26 10:20:50;;;;;;;13.32;12.73;;;;;;;;;;5039150;28;20476;-63
2023/07/26 10:23:16;;;;;;;13.10;12.50;;;;;;;;;;5035845;28;20040;-63
2023/07/26 10:25:42;;;;;;;12.10;11.57;;;;;;;;;;5043249;28;20569;-62
2023/07/26 10:28:08;;;;;;;11.50;11.00;;;;;;;;;;5046387;28;20337;-62
2023/07/26 10:30:33;;;;;;;12.60;12.00;;;;;;;;;;5041705;28;20495;-62
2023/07/26 10:33:02;;;;;;;12.48;11.88;;;;;;;;;;5041220;28;20048;-63
2023/07/26 10:35:34;;;;;;;12.77;12.18;;;;;;;;;;5040729;28;20036;-62
2023/07/26 10:38:02;;;;;;;12.57;11.98;;;;;;;;;;5040969;28;20032;-62
2023/07/26 10:40:28;;;;;;;12.23;11.63;;;;;;;;;;5039583;28;20130;-64
2023/07/26 10:42:53;;;;;;;12.10;11.52;;;;;;;;;;5042333;28;20832;-65
2023/07/26 10:45:42;;;;;;;12.70;12.10;;;;;;;;;;5040732;28;20029;-62
2023/07/26 10:48:14;;;;;;;12.23;11.65;;;;;;;;;;5040171;28;20032;-63
2023/07/26 10:50:41;;;;;;;12.43;11.82;;;;;;;;;;5022795;28;20560;-61
2023/07/26 10:53:24;;;;;;;12.88;12.27;;;;;;;;;;5043286;28;20089;-62
2023/07/26 10:55:50;;;;;;;11.50;11.00;;;;;;;;;;5039386;28;20020;-63
2023/07/26 10:58:15;;;;;;;12.38;11.80;;;;;;;;;;5041297;28;20036;-61
2023/07/26 11:00:41;;;;;;;12.45;11.85;;;;;;;;;;5042599;28;20040;-63
2023/07/26 11:03:07;;;;;;;12.48;11.88;;;;;;;;;;5041884;28;20036;-61
2023/07/26 11:05:37;;;;;;;12.55;11.95;;;;;;;;;;5042138;28;20086;-64
2023/07/26 11:08:06;;;;;;;12.32;11.73;;;;;;;;;;5028504;28;20041;-63
2023/07/26 11:10:33;;;;;;;12.77;12.18;;;;;;;;;;5039769;28;20017;-62
2023/07/26 11:13:07;;;;;;;12.70;12.10;;;;;;;;;;5041520;28;20043;-62
2023/07/26 11:15:33;;;;;;;13.27;12.68;;;;;;;;;;5042170;28;20020;-63
2023/07/26 11:17:59;;;;;;;12.13;11.60;;;;;;;;;;5039291;28;20065;-65
2023/07/26 11:20:24;;;;;;;12.45;11.85;;;;;;;;;;5041604;28;20049;-64
2023/07/26 11:22:50;;;;;;;12.07;11.57;;;;;;;;;;5041707;28;20073;-61
2023/07/26 11:25:15;;;;;;;12.65;12.05;;;;;;;;;;5039291;28;20108;-63
2023/07/26 11:27:41;;;;;;;12.65;12.05;;;;;;;;;;5042225;28;20028;-63
2023/07/26 11:30:16;;;;;;;12.35;11.75;;;;;;;;;;5042164;28;20083;-65
2023/07/26 11:32:42;;;;;;;12.32;11.73;;;;;;;;;;5024490;28;20014;-63
2023/07/26 11:35:09;;;;;;;12.02;11.52;;;;;;;;;;5038066;28;20252;-65
2023/07/26 11:37:35;;;;;;;12.32;11.73;;;;;;;;;;5040863;28;20021;-62
2023/07/26 11:40:01;;;;;;;12.53;11.93;;;;;;;;;;5043845;28;20021;-62
2023/07/26 11:42:26;;;;;;;12.82;12.23;;;;;;;;;;5042751;28;20266;-61
2023/07/26 11:44:52;;;;;;;12.73;12.13;;;;;;;;;;5039415;28;20384;-63
2023/07/26 11:47:17;;;;;;;12.32;11.73;;;;;;;;;;5044096;28;20102;-62
2023/07/26 11:49:42;;;;;;;11.95;11.45;;;;;;;;;;5045358;28;20020;-63
2023/07/26 11:52:12;;;;;;;12.70;12.10;;;;;;;;;;5044862;28;20022;-63
2023/07/26 11:54:52;;;;;;;12.45;11.85;;;;;;;;;;5043368;28;20265;-64
2023/07/26 11:57:20;;;;;;;12.73;12.13;;;;;;;;;;5045057;28;20033;-60
2023/07/26 11:59:46;;;;;;;12.05;11.55;;;;;;;;;;5045781;28;20052;-62
2023/07/26 12:02:11;;;;;;;12.23;11.65;;;;;;;;;;5048931;28;20542;-62
2023/07/26 12:04:36;;;;;;;11.40;10.90;;;;;;;;;;5029038;28;20086;-62
2023/07/26 12:07:02;;;;;;;11.93;11.43;;;;;;;;;;5044847;28;20689;-62
2023/07/26 12:09:27;;;;;;;13.05;12.45;;;;;;;;;;5041990;28;20297;-61
2023/07/26 12:11:55;;;;;;;12.85;12.25;;;;;;;;;;5045712;28;20053;-62
2023/07/26 12:14:20;;;;;;;12.77;12.18;;;;;;;;;;5042974;28;20032;-59
2023/07/26 12:16:49;;;;;;;12.30;11.70;;;;;;;;;;5042418;28;20033;-60
2023/07/26 12:19:15;;;;;;;12.57;11.98;;;;;;;;;;5044080;28;20021;-61
2023/07/26 12:21:40;;;;;;;12.68;12.07;;;;;;;;;;5044860;28;20111;-62
2023/07/26 12:24:06;;;;;;;12.47;11.87;;;;;;;;;;5043320;28;20123;-62
2023/07/26 12:26:35;;;;;;;12.60;12.00;;;;;;;;;;5045957;28;20720;-62
2023/07/26 12:29:01;;;;;;;11.65;11.15;;;;;;;;;;5044073;28;20139;-63
2023/07/26 12:31:28;;;;;;;11.75;11.25;;;;;;;;;;5043716;28;20032;-62
2023/07/26 12:33:54;;;;;;;11.50;11.00;;;;;;;;;;5044967;28;20029;-63
2023/07/26 12:36:20;;;;;;;12.43;11.82;;;;;;;;;;5045797;28;20129;-62
2023/07/26 12:38:45;;;;;;;11.75;11.25;;;;;;;;;;5045015;28;20032;-62
2023/07/26 12:41:10;;;;;;;12.40;11.80;;;;;;;;;;5026808;28;20078;-61
2023/07/26 12:43:36;;;;;;;11.87;11.37;;;;;;;;;;5044633;28;20029;-62
2023/07/26 12:46:01;;;;;;;12.32;11.75;;;;;;;;;;5045806;28;20258;-63
2023/07/26 12:48:28;;;;;;;12.18;11.65;;;;;;;;;;5045387;28;20631;-63
2023/07/26 12:50:54;;;;;;;11.82;11.32;;;;;;;;;;5044979;28;20031;-63
2023/07/26 12:53:20;;;;;;;11.63;11.13;;;;;;;;;;5045288;28;20021;-61
2023/07/26 12:55:46;;;;;;;11.80;11.30;;;;;;;;;;5045387;28;20490;-62
2023/07/26 12:58:11;;;;;;;11.35;10.85;;;;;;;;;;5044954;28;20033;-63
2023/07/26 13:00:36;;;;;;;11.75;11.25;;;;;;;;;;5044517;28;20376;-62
2023/07/26 13:03:02;;;;;;;11.73;11.23;;;;;;;;;;5044253;28;20408;-62
2023/07/26 13:05:28;;;;;;;11.85;11.35;;;;;;;;;;5038450;28;20119;-64
2023/07/26 13:07:53;;;;;;;11.98;11.48;;;;;;;;;;5026609;28;20056;-62
2023/07/26 13:10:19;;;;;;;12.00;11.50;;;;;;;;;;5042469;28;20028;-62
2023/07/26 13:12:45;;;;;;;11.88;11.38;;;;;;;;;;5046160;28;20401;-62
2023/07/26 13:15:10;;;;;;;11.98;11.48;;;;;;;;;;5048270;28;20091;-63
2023/07/26 13:17:35;;;;;;;12.02;11.52;;;;;;;;;;5044831;28;20047;-62
2023/07/26 13:20:02;;;;;;;11.90;11.40;;;;;;;;;;5043578;28;20404;-63
2023/07/26 13:22:28;;;;;;;11.77;11.27;;;;;;;;;;5036837;28;20032;-62
2023/07/26 13:24:53;;;;;;;12.68;12.07;;;;;;;;;;5043999;28;20021;-62
2023/07/26 13:27:18;;;;;;;11.83;11.33;;;;;;;;;;5046750;28;20920;-62
2023/07/26 13:29:43;;;;;;;11.50;11.00;;;;;;;;;;5048066;28;20262;-63
2023/07/26 13:32:09;;;;;;;11.97;11.47;;;;;;;;;;5048566;28;20079;-62
2023/07/26 13:34:34;;;;;;;11.52;11.02;;;;;;;;;;5048693;28;20249;-63
2023/07/26 13:36:59;;;;;;;12.57;11.97;;;;;;;;;;5047527;28;20033;-62
2023/07/26 13:39:25;;;;;;;11.95;11.45;;;;;;;;;;5048496;28;20261;-61
2023/07/26 13:41:51;;;;;;;12.77;12.18;;;;;;;;;;5048037;28;20017;-63
2023/07/26 13:44:16;;;;;;;11.95;11.45;;;;;;;;;;5047280;28;20029;-63
2023/07/26 13:46:41;;;;;;;12.52;11.93;;;;;;;;;;5047237;28;20035;-63
2023/07/26 13:49:07;;;;;;;12.32;11.73;;;;;;;;;;5045738;28;20129;-62
2023/07/26 13:51:32;;;;;;;11.75;11.25;;;;;;;;;;5047022;28;20021;-62
2023/07/26 13:53:58;;;;;;;12.63;12.02;;;;;;;;;;5048331;28;20048;-62
2023/07/26 13:56:24;;;;;;;12.43;11.82;;;;;;;;;;5046884;28;20028;-63
2023/07/26 13:58:49;;;;;;;12.85;12.25;;;;;;;;;;5045109;28;20036;-63
2023/07/26 14:01:15;;;;;;;13.05;12.45;;;;;;;;;;5046694;28;20067;-62
2023/07/26 14:03:41;;;;;;;12.38;11.77;;;;;;;;;;5029360;28;20060;-62
2023/07/26 14:06:07;;;;;;;12.75;12.15;;;;;;;;;;5046573;28;20716;-62
2023/07/26 14:08:32;;;;;;;12.75;12.15;;;;;;;;;;5047894;28;20463;-61